createdAt,value
2019-03-13T00:02:40.555Z,3.90
2019-03-13T00:05:21.234Z,3.90
2019-03-13T00:10:48.105Z,3.90
2019-03-13T00:13:29.175Z,3.90
2019-03-13T00:16:10.374Z,3.90
2019-03-13T00:18:51.135Z,3.90
2019-03-13T00:21:32.083Z,3.90
2019-03-13T00:24:13.350Z,3.90
2019-03-13T00:26:54.395Z,3.90
2019-03-13T00:29:54.601Z,3.80
2019-03-13T00:44:11.371Z,3.80
2019-03-13T00:46:55.710Z,3.80
2019-03-13T00:52:21.362Z,3.90
2019-03-13T01:00:53.742Z,4.00
2019-03-13T01:06:24.156Z,4.10
2019-03-13T01:11:51.063Z,4.20
2019-03-13T01:14:32.208Z,4.30
2019-03-13T01:23:34.839Z,4.30
2019-03-13T01:26:16.011Z,4.40
2019-03-13T01:28:57.051Z,4.40
2019-03-13T01:34:47.255Z,4.40
2019-03-13T01:37:28.391Z,4.40
2019-03-13T01:40:12.882Z,4.40
2019-03-13T01:45:38.715Z,4.50
2019-03-13T01:51:39.596Z,4.50
2019-03-13T01:57:05.368Z,4.50
2019-03-13T02:02:51.918Z,4.50
2019-03-13T02:05:32.629Z,4.50
2019-03-13T02:08:34.540Z,4.40
2019-03-13T02:11:15.876Z,4.40
2019-03-13T02:14:15.842Z,4.40
2019-03-13T02:16:57.060Z,4.40
2019-03-13T02:19:37.642Z,4.30
2019-03-13T02:25:02.511Z,4.30
2019-03-13T02:31:13.158Z,4.30
2019-03-13T02:36:39.845Z,4.20
2019-03-13T02:39:20.995Z,4.20
2019-03-13T02:42:01.894Z,4.20
2019-03-13T02:44:42.596Z,4.10
2019-03-13T02:47:27.346Z,4.10
2019-03-13T02:50:08.842Z,4.10
2019-03-13T02:52:49.797Z,4.10
2019-03-13T02:55:30.686Z,4.00
2019-03-13T03:04:22.977Z,3.90
2019-03-13T03:10:36.309Z,4.00
2019-03-13T03:13:36.583Z,4.00
2019-03-13T03:16:17.351Z,4.20
2019-03-13T03:18:58.029Z,4.20
2019-03-13T03:21:58.332Z,4.30
2019-03-13T03:24:39.901Z,4.40
2019-03-13T03:30:39.714Z,4.50
2019-03-13T03:33:20.644Z,4.60
2019-03-13T03:36:01.064Z,4.60
2019-03-13T03:38:41.755Z,4.50
2019-03-13T03:41:25.798Z,4.50
2019-03-13T03:46:51.145Z,4.50
2019-03-13T03:55:01.495Z,4.30
2019-03-13T03:57:42.457Z,4.20
2019-03-13T04:06:43.560Z,4.10
2019-03-13T04:09:24.559Z,4.10
2019-03-13T04:12:06.204Z,4.00
2019-03-13T04:14:47.178Z,4.00
2019-03-13T04:17:47.620Z,3.90
2019-03-13T04:20:28.386Z,3.80
2019-03-13T04:23:09.301Z,3.70
2019-03-13T04:28:34.514Z,3.50
2019-03-13T04:31:15.560Z,3.40
2019-03-13T04:34:15.527Z,3.40
2019-03-13T04:36:56.500Z,3.30
2019-03-13T04:39:37.622Z,3.20
2019-03-13T04:45:03.745Z,3.20
2019-03-13T04:47:44.459Z,3.10
2019-03-13T04:53:30.216Z,3.10
2019-03-13T04:56:30.134Z,3.10
2019-03-13T04:59:11.116Z,3.10
2019-03-13T05:01:51.715Z,3.10
2019-03-13T05:04:32.933Z,3.10
2019-03-13T05:09:59.071Z,3.00
2019-03-13T05:12:39.942Z,3.00
2019-03-13T05:18:25.425Z,3.00
2019-03-13T05:21:05.850Z,3.00
2019-03-13T05:23:46.362Z,2.90
2019-03-13T05:26:46.876Z,2.90
2019-03-13T05:29:27.850Z,2.90
2019-03-13T05:35:03.756Z,2.90
2019-03-13T05:40:28.971Z,2.90
2019-03-13T05:46:32.790Z,2.90
2019-03-13T05:51:58.057Z,2.80
2019-03-13T05:54:58.402Z,2.80
2019-03-13T05:57:58.772Z,2.80
2019-03-13T06:00:39.838Z,2.80
2019-03-13T06:03:24.195Z,2.80
2019-03-13T06:08:48.910Z,2.80
2019-03-13T06:11:30.113Z,2.80
2019-03-13T06:14:30.435Z,2.80
2019-03-13T06:19:56.624Z,2.90
2019-03-13T06:22:37.312Z,2.90
2019-03-13T06:25:18.106Z,2.90
2019-03-13T06:27:58.997Z,2.90
2019-03-13T06:30:40.271Z,2.90
2019-03-13T06:36:05.164Z,3.00
2019-03-13T06:42:03.176Z,3.00
2019-03-13T06:48:03.192Z,3.10
2019-03-13T06:50:44.502Z,3.20
2019-03-13T06:53:25.170Z,3.40
2019-03-13T07:02:21.045Z,3.80
2019-03-13T07:05:05.368Z,3.90
2019-03-13T07:07:51.025Z,3.90
2019-03-13T07:10:36.635Z,4.00
2019-03-13T07:16:29.939Z,4.20
2019-03-13T07:21:36.722Z,4.20
2019-03-13T07:24:22.434Z,4.30
2019-03-13T07:30:17.271Z,4.50
2019-03-13T07:38:47.483Z,4.70
2019-03-13T07:41:35.532Z,4.70
2019-03-13T07:44:34.732Z,4.80
2019-03-13T07:47:36.541Z,4.80
2019-03-13T07:59:25.551Z,5.00
2019-03-13T08:02:11.789Z,5.10
2019-03-13T08:04:54.652Z,5.20
2019-03-13T08:07:37.379Z,5.30
2019-03-13T08:13:42.143Z,5.50
2019-03-13T08:19:28.612Z,5.70
2019-03-13T08:25:32.243Z,5.80
2019-03-13T08:28:17.952Z,5.90
2019-03-13T08:31:01.168Z,6.00
2019-03-13T08:37:07.315Z,6.00
2019-03-13T08:39:52.863Z,5.90
2019-03-13T08:42:35.617Z,5.90
2019-03-13T08:51:08.046Z,6.10
2019-03-13T08:59:32.426Z,5.90
2019-03-13T09:05:24.549Z,5.50
2019-03-13T09:10:52.975Z,5.90
2019-03-13T09:16:42.638Z,6.60
2019-03-13T09:19:28.059Z,6.70
2019-03-13T09:22:31.321Z,6.70
2019-03-13T09:28:35.677Z,6.70
2019-03-13T09:37:32.175Z,6.50
2019-03-13T09:40:35.591Z,6.30
2019-03-13T09:43:17.840Z,6.10
2019-03-13T09:46:02.227Z,5.90
2019-03-13T09:54:44.264Z,5.90
2019-03-13T10:01:03.761Z,5.80
2019-03-13T10:06:50.337Z,6.60
2019-03-13T10:09:36.883Z,6.90
2019-03-13T10:15:24.064Z,6.90
2019-03-13T10:18:09.337Z,7.00
2019-03-13T10:24:05.563Z,6.60
2019-03-13T10:26:48.472Z,6.30
2019-03-13T10:29:30.920Z,6.10
2019-03-13T10:32:14.747Z,6.10
2019-03-13T10:35:14.737Z,6.00
2019-03-13T10:37:57.760Z,6.00
2019-03-13T10:46:29.810Z,6.20
2019-03-13T10:52:28.150Z,6.40
2019-03-13T10:55:13.474Z,6.60
2019-03-13T10:58:16.688Z,6.60
2019-03-13T11:04:03.904Z,6.40
2019-03-13T11:09:50.566Z,6.40
2019-03-13T11:12:33.596Z,6.70
2019-03-13T11:15:36.677Z,6.80
2019-03-13T11:21:31.035Z,6.90
2019-03-13T11:24:15.146Z,6.80
2019-03-13T11:39:35.704Z,6.00
2019-03-13T11:42:17.350Z,5.80
2019-03-13T11:48:04.778Z,5.60
2019-03-13T11:53:45.138Z,5.00
2019-03-13T12:02:45.264Z,4.80
2019-03-13T12:08:11.866Z,4.70
2019-03-13T12:10:58.174Z,4.70
2019-03-13T12:14:03.964Z,5.00
2019-03-13T12:16:49.346Z,5.50
2019-03-13T12:22:26.170Z,5.80
2019-03-13T12:25:29.401Z,5.80
2019-03-13T12:34:41.961Z,6.30
2019-03-13T12:40:09.066Z,6.80
2019-03-13T12:42:51.820Z,7.00
2019-03-13T12:51:51.187Z,7.50
2019-03-13T12:54:34.129Z,7.80
2019-03-13T12:57:16.704Z,8.00
2019-03-13T13:00:00.864Z,8.00
2019-03-13T13:06:05.633Z,7.50
2019-03-13T13:08:51.157Z,7.20
2019-03-13T13:11:33.789Z,7.20
2019-03-13T13:14:18.756Z,7.20
2019-03-13T13:17:04.317Z,7.10
2019-03-13T13:19:45.213Z,7.10
2019-03-13T13:22:26.211Z,7.00
2019-03-13T13:25:07.140Z,7.00
2019-03-13T13:27:48.053Z,7.00
2019-03-13T13:30:29.035Z,7.00
2019-03-13T13:35:56.123Z,7.00
2019-03-13T13:38:40.507Z,7.00
2019-03-13T13:41:21.581Z,7.00
2019-03-13T13:44:03.005Z,7.00
2019-03-13T13:46:44.686Z,7.10
2019-03-13T13:49:25.750Z,7.30
2019-03-13T13:52:06.559Z,7.50
2019-03-13T13:54:48.035Z,7.50
2019-03-13T14:00:14.450Z,7.30
2019-03-13T14:06:39.459Z,7.20
2019-03-13T14:12:05.510Z,7.10
2019-03-13T14:17:30.534Z,7.10
2019-03-13T14:20:11.173Z,7.20
2019-03-13T14:22:51.931Z,7.30
2019-03-13T14:25:32.765Z,7.50
2019-03-13T14:28:14.034Z,7.50
2019-03-13T14:30:54.888Z,7.70
2019-03-13T14:33:35.642Z,7.80
2019-03-13T14:39:02.208Z,7.50
2019-03-13T14:41:43.064Z,7.30
2019-03-13T14:44:24.096Z,7.10
2019-03-13T14:49:50.250Z,6.80
2019-03-13T14:52:31.174Z,6.80
2019-03-13T14:55:16.179Z,6.70
2019-03-13T14:57:56.765Z,6.60
2019-03-13T15:00:40.369Z,6.50
2019-03-13T15:03:21.467Z,6.40
2019-03-13T15:06:02.834Z,6.40
2019-03-13T15:08:43.600Z,6.40
2019-03-13T15:11:25.803Z,6.40
2019-03-13T15:14:06.897Z,6.40
2019-03-13T15:16:48.408Z,6.40
2019-03-13T15:19:29.514Z,6.30
2019-03-13T15:22:11.222Z,6.20
2019-03-13T15:24:53.205Z,6.10
2019-03-13T15:27:34.528Z,6.00
2019-03-13T15:30:16.176Z,6.00
2019-03-13T15:38:57.679Z,5.90
2019-03-13T15:41:38.501Z,5.90
2019-03-13T15:44:19.971Z,5.80
2019-03-13T15:47:01.061Z,5.80
2019-03-13T15:49:41.734Z,5.80
2019-03-13T15:52:23.736Z,5.80
2019-03-13T15:55:05.064Z,5.70
2019-03-13T15:57:46.008Z,5.70
2019-03-13T16:00:27.754Z,5.60
2019-03-13T16:03:08.914Z,5.60
2019-03-13T16:05:55.152Z,5.60
2019-03-13T16:08:36.181Z,5.50
2019-03-13T16:11:18.083Z,5.50
2019-03-13T16:14:00.179Z,5.50
2019-03-13T16:16:41.719Z,5.40
2019-03-13T16:19:24.045Z,5.40
2019-03-13T16:22:07.299Z,5.40
2019-03-13T16:24:48.929Z,5.40
2019-03-13T16:27:32.809Z,5.30
2019-03-13T16:30:13.851Z,5.30
2019-03-13T16:32:55.120Z,5.30
2019-03-13T16:35:36.119Z,5.20
2019-03-13T16:38:18.299Z,5.20
2019-03-13T16:41:00.457Z,5.20
2019-03-13T16:43:41.782Z,5.10
2019-03-13T16:46:22.468Z,5.10
2019-03-13T16:49:04.506Z,5.00
2019-03-13T16:51:45.651Z,5.00
2019-03-13T16:54:27.517Z,5.00
2019-03-13T16:57:08.823Z,4.90
2019-03-13T17:00:00.119Z,4.90
2019-03-13T17:02:32.278Z,4.80
2019-03-13T17:05:13.583Z,4.80
2019-03-13T17:07:54.668Z,4.70
2019-03-13T17:10:35.485Z,4.80
2019-03-13T17:13:16.347Z,4.70
2019-03-13T17:15:57.664Z,4.70
2019-03-13T17:18:38.712Z,4.70
2019-03-13T17:21:19.985Z,4.70
2019-03-13T17:24:00.622Z,4.70
2019-03-13T17:26:42.105Z,4.60
2019-03-13T17:29:23.402Z,4.60
2019-03-13T17:32:04.983Z,4.60
2019-03-13T17:34:47.902Z,4.60
2019-03-13T17:37:28.185Z,4.50
2019-03-13T17:40:09.168Z,4.50
2019-03-13T17:42:50.173Z,4.50
2019-03-13T17:48:16.134Z,4.40
2019-03-13T17:50:56.660Z,4.40
2019-03-13T17:53:37.104Z,4.40
2019-03-13T17:56:18.334Z,4.40
2019-03-13T17:59:00.496Z,4.40
2019-03-13T18:04:21.255Z,4.30
2019-03-13T18:07:02.093Z,4.20
2019-03-13T18:09:43.248Z,4.30
2019-03-13T18:12:23.715Z,4.30
2019-03-13T18:15:04.565Z,4.20
2019-03-13T18:20:33.490Z,4.10
2019-03-13T18:23:14.121Z,4.10
2019-03-13T18:25:54.998Z,4.10
2019-03-13T18:28:35.763Z,4.00
2019-03-13T18:31:16.515Z,4.00
2019-03-13T18:33:57.082Z,4.00
2019-03-13T18:36:37.839Z,4.00
2019-03-13T18:39:18.516Z,4.00
2019-03-13T18:41:59.198Z,4.00
2019-03-13T18:44:40.079Z,4.00
2019-03-13T18:47:20.584Z,4.10
2019-03-13T18:50:01.148Z,4.10
2019-03-13T18:52:41.664Z,4.20
2019-03-13T18:55:22.382Z,4.30
2019-03-13T18:58:03.070Z,4.30
2019-03-13T19:00:44.176Z,4.30
2019-03-13T19:06:11.901Z,4.30
2019-03-13T19:08:52.506Z,4.30
2019-03-13T19:11:33.868Z,4.30
2019-03-13T19:14:14.330Z,4.20
2019-03-13T19:16:54.664Z,4.10
2019-03-13T19:19:35.028Z,4.10
2019-03-13T19:25:35.121Z,4.00
2019-03-13T19:31:04.982Z,3.90
2019-03-13T19:33:45.902Z,3.90
2019-03-13T19:36:26.374Z,3.90
2019-03-13T19:39:07.167Z,3.80
2019-03-13T19:41:47.966Z,3.80
2019-03-13T19:44:29.006Z,3.80
2019-03-13T19:47:09.816Z,3.80
2019-03-13T19:49:50.863Z,3.80
2019-03-13T19:52:31.818Z,3.70
2019-03-13T19:55:12.539Z,3.80
2019-03-13T20:00:40.305Z,3.80
2019-03-13T20:06:06.280Z,3.80
2019-03-13T20:11:32.399Z,3.80
2019-03-13T20:17:06.151Z,3.80
2019-03-13T20:19:47.209Z,3.80
2019-03-13T20:22:28.451Z,3.80
2019-03-13T20:25:09.399Z,3.80
2019-03-13T20:27:50.384Z,3.70
2019-03-13T20:30:31.073Z,3.70
2019-03-13T20:33:12.073Z,3.70
2019-03-13T20:35:52.920Z,3.70
2019-03-13T20:38:34.015Z,3.60
2019-03-13T20:41:16.457Z,3.60
2019-03-13T20:43:57.296Z,3.60
2019-03-13T20:46:39.113Z,3.60
2019-03-13T20:49:21.559Z,3.60
2019-03-13T20:52:02.407Z,3.60
2019-03-13T20:54:45.655Z,3.60
2019-03-13T21:00:11.163Z,3.70
2019-03-13T21:02:52.257Z,3.70
2019-03-13T21:05:33.073Z,3.70
2019-03-13T21:08:16.003Z,3.70
2019-03-13T21:13:42.471Z,3.70
2019-03-13T21:16:23.227Z,3.80
2019-03-13T21:19:04.552Z,3.80
2019-03-13T21:24:32.859Z,3.80
2019-03-13T21:27:14.134Z,3.90
2019-03-13T21:29:56.510Z,3.90
2019-03-13T21:32:37.777Z,3.90
2019-03-13T21:35:20.225Z,3.90
2019-03-13T21:38:01.372Z,3.90
2019-03-13T21:40:42.255Z,3.90
2019-03-13T21:43:23.003Z,3.90
2019-03-13T21:46:06.598Z,3.90
2019-03-13T21:48:48.340Z,3.90
2019-03-13T21:51:29.950Z,3.90
2019-03-13T21:54:11.431Z,3.90
2019-03-13T22:00:03.400Z,4.00
2019-03-13T22:02:46.861Z,4.00
2019-03-13T22:05:29.037Z,3.90
2019-03-13T22:08:10.143Z,3.90
2019-03-13T22:10:51.107Z,4.00
2019-03-13T22:13:32.469Z,4.00
2019-03-13T22:16:13.464Z,4.00
2019-03-13T22:18:54.360Z,4.00
2019-03-13T22:21:34.945Z,4.00
2019-03-13T22:24:15.568Z,4.00
2019-03-13T22:26:56.371Z,4.00
2019-03-13T22:32:26.948Z,3.90
2019-03-13T22:35:07.960Z,3.90
2019-03-13T22:37:49.393Z,3.80
2019-03-13T22:40:30.144Z,3.70
2019-03-13T22:43:11.592Z,3.70
2019-03-13T22:48:42.100Z,3.60
2019-03-13T22:51:23.490Z,3.50
2019-03-13T22:54:05.456Z,3.50
2019-03-13T22:56:46.121Z,3.50
2019-03-13T22:59:27.261Z,3.40
2019-03-13T23:04:56.931Z,3.40
2019-03-13T23:10:27.636Z,3.40
2019-03-13T23:15:58.040Z,3.40
2019-03-13T23:21:23.376Z,3.30
2019-03-13T23:24:04.446Z,3.30
2019-03-13T23:26:45.555Z,3.30
2019-03-13T23:32:11.334Z,3.30
2019-03-13T23:37:41.752Z,3.30
2019-03-13T23:40:22.689Z,3.30
2019-03-13T23:43:03.356Z,3.30
2019-03-13T23:45:44.930Z,3.30
2019-03-13T23:51:29.329Z,3.30
2019-03-13T23:54:09.814Z,3.40
2019-03-13T23:56:51.276Z,3.40
2019-03-13T23:59:32.059Z,3.40
